createdAt,value
2023-01-06T00:00:30.757Z,7.20
2023-01-06T00:01:30.720Z,7.30
2023-01-06T00:02:30.748Z,7.30
2023-01-06T00:03:30.705Z,7.20
2023-01-06T00:04:30.766Z,7.00
2023-01-06T00:05:30.664Z,7.40
2023-01-06T00:06:30.673Z,7.10
2023-01-06T00:07:30.623Z,6.50
2023-01-06T00:08:30.635Z,6.80
2023-01-06T00:09:30.631Z,7.00
2023-01-06T00:10:30.580Z,6.70
2023-01-06T00:11:30.579Z,6.40
2023-01-06T00:12:30.591Z,6.90
2023-01-06T00:13:30.573Z,6.90
2023-01-06T00:14:30.575Z,6.80
2023-01-06T00:15:30.613Z,6.40
2023-01-06T00:16:30.520Z,6.60
2023-01-06T00:17:30.528Z,6.60
2023-01-06T00:18:30.500Z,6.00
2023-01-06T00:19:30.532Z,6.40
2023-01-06T00:20:30.476Z,6.30
2023-01-06T00:21:30.484Z,6.20
2023-01-06T00:22:30.472Z,6.30
2023-01-06T00:23:30.447Z,6.40
2023-01-06T00:24:30.447Z,6.40
2023-01-06T00:25:30.446Z,6.20
2023-01-06T00:26:30.411Z,6.30
2023-01-06T00:27:30.384Z,5.80
2023-01-06T00:28:30.416Z,6.50
2023-01-06T00:29:30.418Z,6.10
2023-01-06T00:30:30.361Z,6.30
2023-01-06T00:31:30.388Z,6.00
2023-01-06T00:32:30.342Z,6.20
2023-01-06T00:33:30.328Z,5.70
2023-01-06T00:34:30.371Z,5.70
2023-01-06T00:35:30.327Z,5.70
2023-01-06T00:36:30.293Z,5.80
2023-01-06T00:37:30.289Z,5.30
2023-01-06T00:38:30.280Z,5.90
2023-01-06T00:39:30.268Z,5.70
2023-01-06T00:40:30.272Z,5.30
2023-01-06T00:41:30.271Z,5.40
2023-01-06T00:42:30.231Z,5.60
2023-01-06T00:43:30.244Z,5.50
2023-01-06T00:44:30.260Z,6.10
2023-01-06T00:45:30.189Z,5.40
2023-01-06T00:46:30.284Z,5.40
2023-01-06T00:47:30.171Z,5.50
2023-01-06T00:48:30.182Z,5.30
2023-01-06T00:49:30.156Z,4.90
2023-01-06T00:50:30.152Z,5.50
2023-01-06T00:51:30.147Z,5.50
2023-01-06T00:52:30.129Z,5.20
2023-01-06T00:53:30.106Z,5.60
2023-01-06T00:54:30.128Z,5.60
2023-01-06T00:55:30.083Z,6.10
2023-01-06T00:56:30.097Z,6.00
2023-01-06T00:57:30.058Z,6.50
2023-01-06T00:58:30.031Z,6.90
2023-01-06T00:59:30.085Z,6.50
2023-01-06T01:00:30.056Z,6.60
2023-01-06T01:01:30.106Z,6.50
2023-01-06T01:02:30.095Z,6.90
2023-01-06T01:03:30.028Z,6.80
2023-01-06T01:04:30.032Z,7.40
2023-01-06T01:05:29.956Z,7.10
2023-01-06T01:06:29.970Z,7.10
2023-01-06T01:07:29.979Z,7.80
2023-01-06T01:08:29.931Z,7.70
2023-01-06T01:09:29.963Z,7.70
2023-01-06T01:10:29.931Z,8.10
2023-01-06T01:11:29.925Z,8.80
2023-01-06T01:12:29.877Z,8.40
2023-01-06T01:13:29.929Z,9.10
2023-01-06T01:14:29.908Z,9.50
2023-01-06T01:15:29.908Z,9.50
2023-01-06T01:16:29.877Z,8.80
2023-01-06T01:17:29.836Z,9.60
2023-01-06T01:18:29.871Z,10.10
2023-01-06T01:19:29.849Z,9.90
2023-01-06T01:20:29.825Z,10.80
2023-01-06T01:21:29.802Z,10.90
2023-01-06T01:22:29.768Z,11.60
2023-01-06T01:23:29.756Z,10.80
2023-01-06T01:24:29.798Z,11.80
2023-01-06T01:25:29.784Z,12.50
2023-01-06T01:26:29.733Z,12.20
2023-01-06T01:27:29.719Z,13.10
2023-01-06T01:28:29.734Z,13.30
2023-01-06T01:29:29.701Z,12.90
2023-01-06T01:30:29.724Z,14.60
2023-01-06T01:31:30.623Z,14.20
2023-01-06T01:32:29.752Z,14.30
2023-01-06T01:33:29.670Z,15.00
2023-01-06T01:34:30.169Z,14.90
2023-01-06T01:35:29.677Z,15.00
2023-01-06T01:36:29.681Z,15.60
2023-01-06T01:37:29.618Z,15.70
2023-01-06T01:38:29.654Z,16.70
2023-01-06T01:39:29.763Z,17.10
2023-01-06T01:40:29.749Z,16.30
2023-01-06T01:41:29.608Z,17.00
2023-01-06T01:42:29.662Z,17.30
2023-01-06T01:43:29.587Z,18.00
2023-01-06T01:44:29.541Z,18.50
2023-01-06T01:45:29.600Z,17.40
2023-01-06T01:46:29.725Z,17.90
2023-01-06T01:47:29.529Z,18.10
2023-01-06T01:48:29.551Z,18.10
2023-01-06T01:49:29.545Z,18.10
2023-01-06T01:50:29.454Z,19.30
2023-01-06T01:51:29.477Z,19.20
2023-01-06T01:52:29.516Z,19.20
2023-01-06T01:53:29.460Z,19.30
2023-01-06T01:54:29.460Z,19.00
2023-01-06T01:55:29.458Z,19.10
2023-01-06T01:56:29.431Z,19.80
2023-01-06T01:57:29.502Z,19.00
2023-01-06T01:58:29.513Z,20.20
2023-01-06T01:59:29.433Z,19.40
2023-01-06T02:00:29.402Z,19.50
2023-01-06T02:01:29.507Z,18.90
2023-01-06T02:02:29.462Z,19.30
2023-01-06T02:03:29.370Z,18.70
2023-01-06T02:04:29.348Z,18.60
2023-01-06T02:05:29.300Z,19.90
2023-01-06T02:06:29.289Z,18.30
2023-01-06T02:07:29.251Z,18.20
2023-01-06T02:08:29.270Z,18.60
2023-01-06T02:09:29.257Z,17.60
2023-01-06T02:10:29.258Z,17.30
2023-01-06T02:11:29.226Z,17.10
2023-01-06T02:12:29.229Z,16.10
2023-01-06T02:13:29.211Z,15.20
2023-01-06T02:14:29.203Z,15.00
2023-01-06T02:15:29.255Z,14.20
2023-01-06T02:16:29.163Z,14.20
2023-01-06T02:17:29.166Z,12.70
2023-01-06T02:18:29.151Z,11.70
2023-01-06T02:19:29.132Z,12.60
2023-01-06T02:20:29.129Z,11.80
2023-01-06T02:21:29.589Z,10.90
2023-01-06T02:22:29.085Z,10.60
2023-01-06T02:23:29.086Z,10.70
2023-01-06T02:24:29.105Z,9.70
2023-01-06T02:25:29.075Z,9.40
2023-01-06T02:26:29.117Z,9.00
2023-01-06T02:27:29.071Z,9.50
2023-01-06T02:28:29.054Z,9.40
2023-01-06T02:29:29.015Z,9.50
2023-01-06T02:30:29.015Z,8.70
2023-01-06T02:31:29.085Z,8.40
2023-01-06T02:32:29.052Z,8.90
2023-01-06T02:33:28.985Z,8.00
2023-01-06T02:34:28.954Z,7.90
2023-01-06T02:35:28.976Z,8.20
2023-01-06T02:36:28.944Z,7.70
2023-01-06T02:37:28.937Z,7.50
2023-01-06T02:38:28.992Z,7.40
2023-01-06T02:39:28.895Z,6.60
2023-01-06T02:40:28.917Z,6.60
2023-01-06T02:41:29.535Z,6.10
2023-01-06T02:42:28.875Z,6.80
2023-01-06T02:43:28.900Z,6.50
2023-01-06T02:44:28.847Z,6.20
2023-01-06T02:45:28.836Z,5.70
2023-01-06T02:46:28.906Z,5.90
2023-01-06T02:47:28.812Z,5.30
2023-01-06T02:48:28.830Z,5.10
2023-01-06T02:49:28.861Z,5.20
2023-01-06T02:50:28.795Z,4.90
2023-01-06T02:51:28.760Z,5.10
2023-01-06T02:52:28.760Z,5.20
2023-01-06T02:53:28.773Z,4.80
2023-01-06T02:54:28.773Z,4.70
2023-01-06T02:55:28.737Z,4.50
2023-01-06T02:56:28.720Z,4.30
2023-01-06T02:57:28.696Z,4.50
2023-01-06T02:58:28.696Z,4.20
2023-01-06T02:59:28.720Z,4.00
2023-01-06T03:00:28.684Z,4.40
2023-01-06T03:01:28.821Z,4.20
2023-01-06T03:02:28.722Z,3.60
2023-01-06T03:03:28.630Z,4.10
2023-01-06T03:04:28.658Z,3.90
2023-01-06T03:05:28.639Z,3.50
2023-01-06T03:06:28.608Z,4.30
2023-01-06T03:07:28.604Z,4.00
2023-01-06T03:08:28.606Z,3.80
2023-01-06T03:09:28.601Z,3.90
2023-01-06T03:10:28.584Z,3.60
2023-01-06T03:11:28.563Z,3.30
2023-01-06T03:12:28.535Z,3.80
2023-01-06T03:13:28.549Z,3.60
2023-01-06T03:14:28.520Z,3.50
2023-01-06T03:15:28.519Z,3.30
2023-01-06T03:16:28.500Z,3.30
2023-01-06T03:17:28.465Z,3.30
2023-01-06T03:18:28.455Z,3.70
2023-01-06T03:19:28.463Z,3.40
2023-01-06T03:20:28.454Z,3.00
2023-01-06T03:21:28.435Z,3.60
2023-01-06T03:22:28.413Z,3.20
2023-01-06T03:23:28.399Z,3.00
2023-01-06T03:24:28.404Z,3.50
2023-01-06T03:25:28.403Z,3.20
2023-01-06T03:26:28.360Z,3.50
2023-01-06T03:27:28.392Z,3.20
2023-01-06T03:28:28.340Z,3.20
2023-01-06T03:29:28.344Z,3.40
2023-01-06T03:30:28.386Z,3.30
2023-01-06T03:31:28.391Z,3.30
2023-01-06T03:32:28.303Z,3.00
2023-01-06T03:33:28.297Z,3.00
2023-01-06T03:34:28.268Z,3.20
2023-01-06T03:35:28.322Z,3.40
2023-01-06T03:36:28.282Z,3.10
2023-01-06T03:37:28.256Z,3.40
2023-01-06T03:38:28.258Z,3.00
2023-01-06T03:39:28.242Z,3.50
2023-01-06T03:40:28.274Z,3.40
2023-01-06T03:41:28.202Z,3.30
2023-01-06T03:42:36.164Z,3.20
2023-01-06T03:43:28.190Z,3.70
2023-01-06T03:44:28.192Z,3.60
2023-01-06T03:45:28.192Z,3.60
2023-01-06T03:46:28.190Z,3.80
2023-01-06T03:47:28.140Z,3.50
2023-01-06T03:48:28.168Z,4.00
2023-01-06T03:49:28.140Z,3.80
2023-01-06T03:50:28.129Z,3.50
2023-01-06T03:51:28.126Z,3.80
2023-01-06T03:52:28.072Z,3.90
2023-01-06T03:53:28.095Z,3.80
2023-01-06T03:54:28.092Z,3.90
2023-01-06T03:55:28.045Z,3.70
2023-01-06T03:56:28.062Z,3.80
2023-01-06T03:57:28.035Z,3.80
2023-01-06T03:58:28.036Z,3.60
2023-01-06T03:59:28.672Z,3.70
2023-01-06T04:00:27.994Z,3.70
2023-01-06T04:01:27.994Z,3.80
2023-01-06T04:02:27.978Z,3.90
2023-01-06T04:03:27.992Z,3.60
2023-01-06T04:04:27.994Z,3.70
2023-01-06T04:05:27.946Z,3.80
2023-01-06T04:06:27.928Z,3.30
2023-01-06T04:07:27.908Z,3.50
2023-01-06T04:08:27.906Z,3.40
2023-01-06T04:09:27.885Z,3.40
2023-01-06T04:10:27.945Z,3.70
2023-01-06T04:11:27.862Z,3.40
2023-01-06T04:12:27.874Z,3.70
2023-01-06T04:13:27.838Z,3.50
2023-01-06T04:14:27.887Z,3.60
2023-01-06T04:15:27.847Z,3.40
2023-01-06T04:16:27.971Z,3.60
2023-01-06T04:17:27.785Z,4.10
2023-01-06T04:18:27.818Z,3.80
2023-01-06T04:19:27.770Z,3.60
2023-01-06T04:20:27.760Z,3.80
2023-01-06T04:21:27.748Z,3.50
2023-01-06T04:22:27.794Z,3.20
2023-01-06T04:23:27.735Z,3.80
2023-01-06T04:24:27.712Z,3.40
2023-01-06T04:25:27.713Z,3.40
2023-01-06T04:26:27.699Z,3.40
2023-01-06T04:27:27.717Z,3.40
2023-01-06T04:28:27.726Z,3.00
2023-01-06T04:29:27.662Z,2.90
2023-01-06T04:30:27.675Z,3.10
2023-01-06T04:31:27.654Z,2.80
2023-01-06T04:32:27.626Z,2.60
2023-01-06T04:33:27.610Z,2.80
2023-01-06T04:34:27.619Z,2.90
2023-01-06T04:35:27.600Z,2.50
2023-01-06T04:36:27.593Z,2.70
2023-01-06T04:37:27.594Z,2.50
2023-01-06T04:38:27.554Z,2.70
2023-01-06T04:39:27.578Z,2.70
2023-01-06T04:40:27.559Z,2.90
2023-01-06T04:41:27.520Z,2.40
2023-01-06T04:42:27.510Z,2.70
2023-01-06T04:43:27.519Z,2.90
2023-01-06T04:44:27.496Z,2.50
2023-01-06T04:45:27.556Z,2.80
2023-01-06T04:46:27.531Z,2.70
2023-01-06T04:47:27.450Z,2.50
2023-01-06T04:48:27.457Z,2.60
2023-01-06T04:49:27.464Z,2.70
2023-01-06T04:50:27.438Z,2.80
2023-01-06T04:51:27.447Z,2.70
2023-01-06T04:52:27.409Z,2.90
2023-01-06T04:53:27.401Z,2.70
2023-01-06T04:54:27.373Z,2.80
2023-01-06T04:55:27.355Z,2.60
2023-01-06T04:56:27.357Z,2.70
2023-01-06T04:57:27.376Z,2.90
2023-01-06T04:58:27.345Z,2.90
2023-01-06T04:59:27.359Z,2.60
2023-01-06T05:00:27.305Z,2.90
2023-01-06T05:01:27.416Z,2.70
2023-01-06T05:02:27.366Z,2.80
2023-01-06T05:03:27.403Z,2.80
2023-01-06T05:04:30.158Z,2.90
2023-01-06T05:05:27.271Z,3.00
2023-01-06T05:06:27.268Z,2.90
2023-01-06T05:07:27.223Z,2.70
2023-01-06T05:08:27.243Z,2.80
2023-01-06T05:09:27.250Z,2.90
2023-01-06T05:10:27.193Z,2.50
2023-01-06T05:11:27.202Z,2.70
2023-01-06T05:12:27.221Z,2.60
2023-01-06T05:13:27.191Z,2.60
2023-01-06T05:14:27.199Z,2.50
2023-01-06T05:15:27.168Z,2.50
2023-01-06T05:16:27.183Z,2.60
2023-01-06T05:17:27.131Z,2.90
2023-01-06T05:18:27.120Z,2.90
2023-01-06T05:19:27.125Z,2.70
2023-01-06T05:20:27.079Z,2.90
2023-01-06T05:21:27.092Z,2.80
2023-01-06T05:22:27.063Z,2.60
2023-01-06T05:23:27.065Z,2.50
2023-01-06T05:24:27.088Z,2.80
2023-01-06T05:25:27.040Z,2.80
2023-01-06T05:26:27.027Z,2.70
2023-01-06T05:27:27.018Z,2.40
2023-01-06T05:28:27.030Z,2.40
2023-01-06T05:29:27.047Z,2.30
2023-01-06T05:30:27.019Z,2.40
2023-01-06T05:31:27.015Z,2.40
2023-01-06T05:32:26.946Z,2.60
2023-01-06T05:33:26.936Z,2.60
2023-01-06T05:34:26.925Z,2.30
2023-01-06T05:35:26.969Z,2.40
2023-01-06T05:36:26.903Z,2.50
2023-01-06T05:37:26.916Z,2.40
2023-01-06T05:38:26.918Z,2.70
2023-01-06T05:39:26.860Z,2.60
2023-01-06T05:40:26.869Z,2.50
2023-01-06T05:41:26.876Z,2.40
2023-01-06T05:42:26.854Z,2.40
2023-01-06T05:43:26.835Z,2.60
2023-01-06T05:44:26.806Z,2.70
2023-01-06T05:45:26.843Z,2.40
2023-01-06T05:46:26.800Z,2.20
2023-01-06T05:47:26.795Z,2.50
2023-01-06T05:48:26.793Z,2.50
2023-01-06T05:49:26.752Z,2.20
2023-01-06T05:50:26.754Z,2.30
2023-01-06T05:51:26.769Z,2.40
2023-01-06T05:52:26.714Z,2.20
2023-01-06T05:53:26.740Z,2.30
2023-01-06T05:54:26.712Z,2.40
2023-01-06T05:55:26.687Z,2.60
2023-01-06T05:56:26.682Z,2.30
2023-01-06T05:57:26.698Z,2.40
2023-01-06T05:58:26.674Z,2.20
2023-01-06T05:59:26.641Z,2.50
2023-01-06T06:00:26.652Z,2.50
2023-01-06T06:01:26.654Z,2.40
2023-01-06T06:02:26.652Z,2.40
2023-01-06T06:03:26.670Z,2.40
2023-01-06T06:04:26.598Z,2.40
2023-01-06T06:05:26.623Z,2.50
2023-01-06T06:06:26.555Z,2.40
2023-01-06T06:07:26.552Z,2.60
2023-01-06T06:08:26.567Z,2.50
2023-01-06T06:09:26.571Z,2.40
2023-01-06T06:10:26.530Z,2.30
2023-01-06T06:11:26.514Z,2.70
2023-01-06T06:12:26.488Z,2.40
2023-01-06T06:13:26.494Z,2.40
2023-01-06T06:14:26.719Z,2.50
2023-01-06T06:15:26.454Z,2.50
2023-01-06T06:16:26.485Z,2.40
2023-01-06T06:17:26.473Z,2.30
2023-01-06T06:18:26.440Z,2.70
2023-01-06T06:19:26.442Z,2.60
2023-01-06T06:20:26.422Z,2.80
2023-01-06T06:21:26.408Z,2.70
2023-01-06T06:22:26.407Z,2.70
2023-01-06T06:23:26.409Z,2.80
2023-01-06T06:24:26.391Z,2.80
2023-01-06T06:25:26.338Z,2.70
2023-01-06T06:26:26.329Z,3.10
2023-01-06T06:27:26.325Z,3.20
2023-01-06T06:28:26.324Z,3.20
2023-01-06T06:29:26.299Z,3.50
2023-01-06T06:30:26.777Z,3.10
2023-01-06T06:31:26.414Z,3.20
2023-01-06T06:32:26.295Z,3.20
2023-01-06T06:33:26.282Z,3.40
2023-01-06T06:34:26.238Z,3.30
2023-01-06T06:35:26.234Z,3.10
2023-01-06T06:36:26.260Z,3.30
2023-01-06T06:37:26.223Z,3.00
2023-01-06T06:38:26.246Z,3.10
2023-01-06T06:39:26.193Z,3.10
2023-01-06T06:40:26.168Z,3.30
2023-01-06T06:41:26.203Z,3.20
2023-01-06T06:42:26.149Z,3.60
2023-01-06T06:43:26.151Z,3.10
2023-01-06T06:44:26.129Z,3.40
2023-01-06T06:45:26.131Z,2.90
2023-01-06T06:46:26.103Z,3.20
2023-01-06T06:47:26.123Z,3.10
2023-01-06T06:48:26.079Z,3.20
2023-01-06T06:49:26.079Z,3.20
2023-01-06T06:50:26.061Z,3.30
2023-01-06T06:51:26.129Z,3.30
2023-01-06T06:52:26.032Z,3.20
2023-01-06T06:53:26.061Z,3.40
2023-01-06T06:54:26.014Z,3.20
2023-01-06T06:55:26.022Z,3.20
2023-01-06T06:56:26.002Z,3.30
2023-01-06T06:57:26.004Z,3.30
2023-01-06T06:58:25.994Z,3.20
2023-01-06T06:59:25.982Z,3.30
2023-01-06T07:00:25.957Z,3.20
2023-01-06T07:01:26.014Z,3.30
2023-01-06T07:02:25.935Z,3.30
2023-01-06T07:03:25.915Z,3.10
2023-01-06T07:04:25.981Z,3.10
2023-01-06T07:05:25.880Z,3.20
2023-01-06T07:06:27.971Z,3.20
2023-01-06T07:07:25.875Z,3.20
2023-01-06T07:08:25.887Z,3.10
2023-01-06T07:09:25.889Z,3.10
2023-01-06T07:10:25.845Z,7.00
2023-01-06T07:11:25.839Z,3.50
2023-01-06T07:12:25.819Z,3.30
2023-01-06T07:13:25.802Z,3.60
2023-01-06T07:14:25.833Z,3.50
2023-01-06T07:15:25.794Z,3.60
2023-01-06T07:16:25.771Z,3.70
2023-01-06T07:17:25.750Z,3.30
2023-01-06T07:18:25.762Z,3.60
2023-01-06T07:19:25.742Z,3.80
2023-01-06T07:20:25.776Z,3.70
2023-01-06T07:21:25.718Z,3.60
2023-01-06T07:22:25.703Z,3.70
2023-01-06T07:23:25.700Z,4.20
2023-01-06T07:24:25.686Z,4.20
2023-01-06T07:25:25.680Z,3.90
2023-01-06T07:26:25.676Z,3.90
2023-01-06T07:27:25.638Z,4.10
2023-01-06T07:28:25.661Z,3.90
2023-01-06T07:29:25.630Z,4.40
2023-01-06T07:30:25.645Z,3.90
2023-01-06T07:31:25.652Z,4.10
2023-01-06T07:32:25.590Z,4.40
2023-01-06T07:33:25.598Z,4.30
2023-01-06T07:34:25.579Z,4.30
2023-01-06T07:35:25.593Z,4.00
2023-01-06T07:36:25.569Z,4.60
2023-01-06T07:37:25.535Z,4.10
2023-01-06T07:38:25.512Z,4.50
2023-01-06T07:39:25.520Z,3.70
2023-01-06T07:40:25.500Z,3.80
2023-01-06T07:41:25.495Z,4.00
2023-01-06T07:42:25.491Z,4.00
2023-01-06T07:43:25.470Z,3.90
2023-01-06T07:44:25.496Z,4.10
2023-01-06T07:45:25.453Z,3.80
2023-01-06T07:46:25.510Z,3.90
2023-01-06T07:47:25.427Z,3.60
2023-01-06T07:48:25.450Z,4.10
2023-01-06T07:49:25.404Z,3.70
2023-01-06T07:50:26.439Z,3.80
2023-01-06T07:51:25.406Z,4.20
2023-01-06T07:52:25.475Z,3.70
2023-01-06T07:53:25.484Z,4.10
2023-01-06T07:54:25.346Z,4.10
2023-01-06T07:55:25.337Z,4.00
2023-01-06T07:56:25.306Z,4.30
2023-01-06T07:57:25.300Z,3.80
2023-01-06T07:58:25.427Z,4.00
2023-01-06T07:59:25.297Z,3.80
2023-01-06T08:00:25.260Z,4.10
2023-01-06T08:01:25.352Z,3.90
2023-01-06T08:02:25.397Z,4.20
2023-01-06T08:03:25.430Z,4.20
2023-01-06T08:04:25.346Z,4.10
2023-01-06T08:05:25.222Z,3.70
2023-01-06T08:06:25.216Z,4.10
2023-01-06T08:07:25.210Z,4.30
2023-01-06T08:08:25.227Z,4.10
2023-01-06T08:09:25.248Z,3.80
2023-01-06T08:10:25.244Z,4.10
2023-01-06T08:11:25.220Z,3.70
2023-01-06T08:12:25.141Z,3.80
2023-01-06T08:13:25.204Z,4.20
2023-01-06T08:14:25.258Z,3.80
2023-01-06T08:15:25.141Z,4.10
2023-01-06T08:16:25.109Z,3.60
2023-01-06T08:17:25.081Z,3.90
2023-01-06T08:18:25.054Z,3.90
2023-01-06T08:19:25.138Z,3.70
2023-01-06T08:20:25.211Z,3.80
2023-01-06T08:21:25.063Z,4.20
2023-01-06T08:22:25.008Z,3.90
2023-01-06T08:23:25.094Z,3.70
2023-01-06T08:24:25.011Z,3.80
2023-01-06T08:25:25.026Z,3.70
2023-01-06T08:26:25.064Z,3.90
2023-01-06T08:27:25.005Z,3.40
2023-01-06T08:28:25.045Z,3.90
2023-01-06T08:29:24.969Z,4.00
2023-01-06T08:30:24.933Z,3.20
2023-01-06T08:31:24.972Z,3.60
2023-01-06T08:32:24.953Z,3.70
2023-01-06T08:33:24.907Z,3.90
2023-01-06T08:34:24.884Z,3.90
2023-01-06T08:35:24.912Z,3.50
2023-01-06T08:36:24.853Z,3.60
2023-01-06T08:37:24.905Z,3.70
2023-01-06T08:38:24.849Z,3.40
2023-01-06T08:39:24.874Z,3.20
2023-01-06T08:40:25.812Z,3.60
2023-01-06T08:41:24.875Z,3.70
2023-01-06T08:42:24.800Z,3.90
2023-01-06T08:43:24.827Z,3.70
2023-01-06T08:44:24.775Z,3.80
2023-01-06T08:45:24.757Z,3.70
2023-01-06T08:46:24.819Z,3.60
2023-01-06T08:47:24.758Z,3.80
2023-01-06T08:48:24.721Z,3.60
2023-01-06T08:49:24.783Z,3.50
2023-01-06T08:50:26.543Z,3.50
2023-01-06T08:51:24.707Z,3.70
2023-01-06T08:52:24.731Z,3.90
2023-01-06T08:53:24.671Z,3.80
2023-01-06T08:54:24.651Z,3.50
2023-01-06T08:55:24.685Z,3.70
2023-01-06T08:56:24.635Z,3.70
2023-01-06T08:57:24.631Z,3.80
2023-01-06T08:58:24.612Z,3.60
2023-01-06T08:59:24.612Z,3.90
2023-01-06T09:00:24.657Z,3.80
2023-01-06T09:01:24.703Z,4.20
2023-01-06T09:02:24.638Z,3.90
2023-01-06T09:03:24.583Z,3.60
2023-01-06T09:04:24.549Z,3.80
2023-01-06T09:05:24.545Z,3.70
2023-01-06T09:06:24.515Z,3.90
2023-01-06T09:07:24.505Z,4.30
2023-01-06T09:08:24.512Z,4.30
2023-01-06T09:09:24.507Z,4.30
2023-01-06T09:10:24.518Z,4.10
2023-01-06T09:11:24.455Z,4.40
2023-01-06T09:12:24.458Z,4.20
2023-01-06T09:13:24.443Z,4.50
2023-01-06T09:14:24.462Z,4.40
2023-01-06T09:15:24.436Z,4.60
2023-01-06T09:16:24.551Z,4.50
2023-01-06T09:17:24.419Z,4.50
2023-01-06T09:18:24.435Z,4.60
2023-01-06T09:19:24.384Z,4.90
2023-01-06T09:20:24.363Z,4.80
2023-01-06T09:21:24.401Z,4.40
2023-01-06T09:22:24.362Z,4.60
2023-01-06T09:23:24.326Z,5.10
2023-01-06T09:24:24.358Z,4.70
2023-01-06T09:25:24.324Z,4.70
2023-01-06T09:26:24.354Z,4.70
2023-01-06T09:27:24.301Z,5.50
2023-01-06T09:28:24.274Z,5.20
2023-01-06T09:29:24.254Z,5.00
2023-01-06T09:30:24.250Z,5.50
2023-01-06T09:31:24.342Z,5.40
2023-01-06T09:32:24.259Z,5.60
2023-01-06T09:33:26.303Z,5.20
2023-01-06T09:34:24.261Z,5.50
2023-01-06T09:35:24.197Z,5.20
2023-01-06T09:36:24.200Z,5.70
2023-01-06T09:37:24.295Z,5.50
2023-01-06T09:38:24.168Z,6.00
2023-01-06T09:39:24.140Z,6.20
2023-01-06T09:40:24.171Z,6.20
2023-01-06T09:41:24.130Z,6.00
2023-01-06T09:42:24.133Z,5.60
2023-01-06T09:43:24.143Z,5.50
2023-01-06T09:44:24.818Z,5.10
2023-01-06T09:45:24.074Z,4.50
2023-01-06T09:46:24.318Z,4.70
2023-01-06T09:47:24.059Z,4.80
2023-01-06T09:48:24.060Z,5.00
2023-01-06T09:49:24.052Z,4.40
2023-01-06T09:50:24.024Z,4.70
2023-01-06T09:51:24.009Z,4.70
2023-01-06T09:52:24.009Z,4.30
2023-01-06T09:53:24.005Z,4.20
2023-01-06T09:54:23.994Z,4.40
2023-01-06T09:55:23.969Z,4.10
2023-01-06T09:56:23.954Z,4.20
2023-01-06T09:57:23.933Z,4.10
2023-01-06T09:58:23.932Z,4.10
2023-01-06T09:59:23.945Z,4.00
2023-01-06T10:00:23.904Z,4.10
2023-01-06T10:01:23.999Z,4.10
2023-01-06T10:02:23.964Z,4.10
2023-01-06T10:03:23.866Z,3.80
2023-01-06T10:04:23.905Z,4.20
2023-01-06T10:05:23.847Z,3.80
2023-01-06T10:06:23.975Z,4.00
2023-01-06T10:07:23.835Z,3.80
2023-01-06T10:08:23.833Z,4.20
2023-01-06T10:09:23.816Z,4.10
2023-01-06T10:10:23.828Z,3.80
2023-01-06T10:11:23.827Z,3.80
2023-01-06T10:12:23.775Z,3.70
2023-01-06T10:13:23.749Z,3.80
2023-01-06T10:14:23.754Z,3.60
2023-01-06T10:15:23.733Z,4.00
2023-01-06T10:16:23.809Z,3.80
2023-01-06T10:17:23.708Z,4.00
2023-01-06T10:18:23.703Z,3.80
2023-01-06T10:19:23.724Z,3.70
2023-01-06T10:20:23.690Z,3.50
2023-01-06T10:21:23.688Z,3.70
2023-01-06T10:22:23.654Z,3.30
2023-01-06T10:23:23.640Z,3.40
2023-01-06T10:24:23.652Z,3.50
2023-01-06T10:25:23.629Z,3.50
2023-01-06T10:26:23.643Z,3.60
2023-01-06T10:27:23.961Z,3.60
2023-01-06T10:28:23.601Z,3.70
2023-01-06T10:29:23.628Z,3.80
2023-01-06T10:30:24.907Z,3.70
2023-01-06T10:31:23.633Z,3.80
2023-01-06T10:32:23.579Z,3.50
2023-01-06T10:33:23.528Z,3.70
2023-01-06T10:34:23.527Z,3.90
2023-01-06T10:35:23.596Z,4.00
2023-01-06T10:36:23.523Z,4.10
2023-01-06T10:37:23.505Z,4.20
2023-01-06T10:38:23.475Z,4.50
2023-01-06T10:39:23.464Z,4.90
2023-01-06T10:40:23.522Z,4.60
2023-01-06T10:41:23.502Z,4.40
2023-01-06T10:42:23.557Z,4.30
2023-01-06T10:43:23.547Z,4.20
2023-01-06T10:44:23.439Z,4.40
2023-01-06T10:45:23.706Z,4.20
2023-01-06T10:46:23.485Z,4.30
2023-01-06T10:47:23.377Z,4.30
2023-01-06T10:48:23.361Z,4.70
2023-01-06T10:49:23.375Z,4.60
2023-01-06T10:50:23.390Z,4.30
2023-01-06T10:51:23.449Z,4.00
2023-01-06T10:52:23.321Z,4.30
2023-01-06T10:53:23.337Z,4.30
2023-01-06T10:54:23.352Z,4.60
2023-01-06T10:55:23.374Z,4.20
2023-01-06T10:56:23.398Z,4.50
2023-01-06T10:57:23.257Z,4.40
2023-01-06T10:58:23.254Z,4.40
2023-01-06T10:59:23.240Z,4.60
2023-01-06T11:00:23.237Z,4.60
2023-01-06T11:01:23.583Z,4.40
2023-01-06T11:02:23.484Z,4.30
2023-01-06T11:03:33.377Z,4.30
2023-01-06T11:04:23.201Z,4.00
2023-01-06T11:05:23.237Z,4.40
2023-01-06T11:06:23.195Z,4.20
2023-01-06T11:07:23.191Z,4.10
2023-01-06T11:08:23.135Z,4.30
2023-01-06T11:09:23.152Z,3.50
2023-01-06T11:10:23.111Z,3.70
2023-01-06T11:11:28.096Z,3.50
2023-01-06T11:12:23.113Z,3.40
2023-01-06T11:13:23.130Z,3.20
2023-01-06T11:14:23.134Z,3.10
2023-01-06T11:15:23.046Z,2.90
2023-01-06T11:16:23.121Z,3.40
2023-01-06T11:17:23.125Z,3.10
2023-01-06T11:18:23.053Z,2.90
2023-01-06T11:19:23.071Z,3.20
2023-01-06T11:20:22.996Z,3.00
2023-01-06T11:21:23.107Z,3.40
2023-01-06T11:22:23.050Z,3.20
2023-01-06T11:23:22.997Z,3.50
2023-01-06T11:24:22.961Z,3.40
2023-01-06T11:25:22.998Z,3.40
2023-01-06T11:26:23.018Z,3.60
2023-01-06T11:27:23.015Z,3.50
2023-01-06T11:28:22.947Z,3.90
2023-01-06T11:29:22.892Z,3.90
2023-01-06T11:30:22.957Z,4.00
2023-01-06T11:31:22.952Z,4.00
2023-01-06T11:32:22.974Z,4.00
2023-01-06T11:33:22.870Z,4.20
2023-01-06T11:34:22.880Z,4.10
2023-01-06T11:35:22.820Z,4.40
2023-01-06T11:36:22.844Z,4.60
2023-01-06T11:37:22.832Z,4.50
2023-01-06T11:38:22.784Z,4.40
2023-01-06T11:39:22.775Z,4.60
2023-01-06T11:40:22.767Z,4.20
2023-01-06T11:41:22.778Z,4.60
2023-01-06T11:42:22.795Z,4.20
2023-01-06T11:43:22.774Z,4.20
2023-01-06T11:44:22.716Z,4.20
2023-01-06T11:45:22.715Z,4.20
2023-01-06T11:46:22.734Z,4.40
2023-01-06T11:47:22.708Z,4.30
2023-01-06T11:48:22.669Z,4.10
2023-01-06T11:49:22.656Z,3.80
2023-01-06T11:50:22.745Z,3.90
2023-01-06T11:51:22.753Z,3.90
2023-01-06T11:52:22.673Z,4.10
2023-01-06T11:53:22.625Z,3.80
2023-01-06T11:54:22.610Z,3.40
2023-01-06T11:55:22.598Z,3.50
2023-01-06T11:56:22.600Z,3.80
2023-01-06T11:57:22.571Z,3.50
2023-01-06T11:58:22.564Z,3.50
2023-01-06T11:59:22.540Z,3.50
2023-01-06T12:00:22.550Z,3.50
2023-01-06T12:01:22.607Z,3.70
2023-01-06T12:02:22.610Z,3.40
2023-01-06T12:03:22.525Z,3.30
2023-01-06T12:04:22.492Z,3.20
2023-01-06T12:05:22.478Z,3.40
2023-01-06T12:06:22.484Z,3.00
2023-01-06T12:07:22.449Z,3.40
2023-01-06T12:08:22.445Z,3.50
2023-01-06T12:09:22.479Z,3.30
2023-01-06T12:10:22.465Z,3.20
2023-01-06T12:11:22.527Z,3.20
2023-01-06T12:12:22.427Z,3.50
2023-01-06T12:13:22.381Z,3.30
2023-01-06T12:14:28.785Z,3.20
2023-01-06T12:15:22.380Z,3.20
2023-01-06T12:16:22.484Z,3.20
2023-01-06T12:17:22.524Z,2.90
2023-01-06T12:18:22.330Z,3.00
2023-01-06T12:19:22.310Z,2.90
2023-01-06T12:20:22.339Z,2.80
2023-01-06T12:21:22.338Z,2.90
2023-01-06T12:22:22.293Z,2.90
2023-01-06T12:23:22.321Z,2.70
2023-01-06T12:24:22.279Z,2.90
2023-01-06T12:25:22.281Z,2.70
2023-01-06T12:26:23.816Z,2.80
2023-01-06T12:27:22.228Z,3.00
2023-01-06T12:28:22.220Z,2.90
2023-01-06T12:29:22.224Z,2.60
2023-01-06T12:30:22.195Z,3.00
2023-01-06T12:31:22.231Z,2.80
2023-01-06T12:32:22.194Z,3.20
2023-01-06T12:33:22.220Z,3.20
2023-01-06T12:34:22.192Z,3.00
2023-01-06T12:35:22.169Z,3.20
2023-01-06T12:36:22.149Z,3.10
2023-01-06T12:37:22.137Z,3.20
2023-01-06T12:38:22.173Z,3.00
2023-01-06T12:39:22.112Z,3.00
2023-01-06T12:40:22.101Z,3.60
2023-01-06T12:41:22.207Z,3.00
2023-01-06T12:42:22.100Z,3.50
2023-01-06T12:43:22.119Z,3.00
2023-01-06T12:44:22.142Z,3.00
2023-01-06T12:45:22.075Z,2.80
2023-01-06T12:46:22.191Z,2.90
2023-01-06T12:47:22.066Z,2.90
2023-01-06T12:48:22.020Z,3.10
2023-01-06T12:49:22.031Z,3.10
2023-01-06T12:50:22.018Z,3.00
2023-01-06T12:51:21.973Z,2.90
2023-01-06T12:52:21.971Z,3.20
2023-01-06T12:53:21.926Z,2.80
2023-01-06T12:54:22.004Z,3.10
2023-01-06T12:55:21.918Z,3.10
2023-01-06T12:56:21.921Z,3.00
2023-01-06T12:57:21.889Z,2.80
2023-01-06T12:58:21.883Z,2.60
2023-01-06T12:59:21.863Z,2.80
2023-01-06T13:00:21.884Z,2.50
2023-01-06T13:01:22.056Z,2.60
2023-01-06T13:02:21.958Z,2.70
2023-01-06T13:03:21.846Z,2.60
2023-01-06T13:04:21.929Z,2.60
2023-01-06T13:05:21.857Z,2.30
2023-01-06T13:06:21.790Z,2.30
2023-01-06T13:07:21.801Z,2.30
2023-01-06T13:08:21.767Z,2.60
2023-01-06T13:09:21.748Z,2.40
2023-01-06T13:10:21.797Z,2.80
2023-01-06T13:11:21.743Z,2.40
2023-01-06T13:12:21.785Z,2.60
2023-01-06T13:13:21.700Z,2.40
2023-01-06T13:14:21.719Z,2.50
2023-01-06T13:15:21.720Z,2.40
2023-01-06T13:16:21.732Z,2.80